Time;durP1;ratioP1;P1;durP2;ratioP2;P2;SDS_P1;SDS_P2;PMS_P1;PMS_P2;Temp;Humidity;BMP_temperature;BMP_pressure;BME280_temperature;BME280_humidity;BME280_pressure;Samples;Min_cycle;Max_cycle;Signal;HPM_P1;HPM_P2
2021/12/23 00:01:39;;;;;;;25.17;12.52;;;;;;;0.08;79.14;101672.00;5093321;28;20020;-63
2021/12/23 00:04:05;;;;;;;25.75;12.75;;;;;;;0.02;79.60;101646.16;5074251;28;20032;-63
2021/12/23 00:06:30;;;;;;;23.85;13.57;;;;;;;0.05;79.56;101623.91;5093252;28;20028;-63
2021/12/23 00:08:59;;;;;;;23.52;12.30;;;;;;;-0.07;80.01;101599.28;5093186;28;20458;-64
2021/12/23 00:11:25;;;;;;;27.38;13.90;;;;;;;-0.01;79.68;101606.50;5093190;28;20425;-63
2021/12/23 00:14:00;;;;;;;27.90;13.05;;;;;;;0.01;79.51;101596.25;5093174;28;20024;-66
2021/12/23 00:16:41;;;;;;;24.90;12.60;;;;;;;-0.01;78.93;101592.06;5093452;28;20390;-64
2021/12/23 00:19:18;;;;;;;23.65;12.18;;;;;;;-0.03;79.31;101637.13;5075105;28;20020;-64
2021/12/23 00:24:28;;;;;;;25.83;11.75;;;;;;;0.11;78.19;101645.56;5093413;28;20066;-63
2021/12/23 00:26:53;;;;;;;22.95;12.43;;;;;;;0.08;79.14;101630.53;5093247;28;20103;-63
2021/12/23 00:29:18;;;;;;;27.90;13.15;;;;;;;0.20;78.63;101607.69;5074916;28;20085;-63
2021/12/23 00:31:44;;;;;;;22.20;12.60;;;;;;;0.21;78.66;101611.03;5093283;28;20040;-63
2021/12/23 00:34:10;;;;;;;25.05;12.30;;;;;;;0.12;78.46;101601.47;5074977;28;20027;-63
2021/12/23 00:36:38;;;;;;;23.77;13.60;;;;;;;0.10;78.91;101606.63;5093249;28;20426;-64
2021/12/23 00:39:06;;;;;;;26.50;13.30;;;;;;;-0.03;78.84;101603.25;5074829;28;20385;-65
2021/12/23 00:41:31;;;;;;;23.67;12.10;;;;;;;-0.09;79.39;101601.09;5092717;28;20021;-64
2021/12/23 00:43:58;;;;;;;22.52;12.45;;;;;;;-0.04;79.86;101601.63;5074776;28;20028;-62
2021/12/23 00:46:23;;;;;;;24.33;13.43;;;;;;;0.15;78.36;101591.91;5093478;28;20051;-63
2021/12/23 00:48:48;;;;;;;24.27;12.50;;;;;;;0.07;78.96;101596.66;5096755;28;20035;-64
2021/12/23 00:51:14;;;;;;;26.23;12.20;;;;;;;0.09;78.51;101596.59;5096049;28;20458;-63
2021/12/23 00:53:40;;;;;;;23.98;11.82;;;;;;;0.06;78.71;101594.22;5096128;28;20020;-64
2021/12/23 00:56:10;;;;;;;22.45;12.35;;;;;;;0.02;78.01;101580.09;5077791;28;20466;-64
2021/12/23 00:58:36;;;;;;;25.00;12.75;;;;;;;0.01;78.37;101581.00;5096015;28;20146;-64
2021/12/23 01:01:01;;;;;;;23.83;12.13;;;;;;;-0.02;79.04;101582.81;5077693;28;20099;-63
2021/12/23 01:03:28;;;;;;;24.42;12.75;;;;;;;0.07;78.67;101583.16;5077756;28;20093;-65
2021/12/23 01:05:53;;;;;;;28.30;12.32;;;;;;;0.02;78.36;101580.09;5077618;28;20031;-64
2021/12/23 01:08:19;;;;;;;23.35;12.18;;;;;;;0.24;77.77;101592.22;5095695;28;20331;-64
2021/12/23 01:10:49;;;;;;;23.83;12.80;;;;;;;0.35;77.93;101600.78;5077483;28;20024;-64
2021/12/23 01:13:14;;;;;;;22.08;11.77;;;;;;;0.31;77.25;101594.25;5095868;28;20031;-65
2021/12/23 01:15:58;;;;;;;24.50;12.50;;;;;;;0.28;76.15;101597.00;5077733;28;20067;-65
2021/12/23 01:18:25;;;;;;;22.30;11.82;;;;;;;0.26;75.92;101581.06;5095599;28;20092;-64
2021/12/23 01:21:03;;;;;;;23.45;12.10;;;;;;;0.23;76.56;101583.78;5077235;28;20350;-65
2021/12/23 01:23:29;;;;;;;23.08;12.23;;;;;;;0.30;76.68;101574.84;5095465;28;20028;-64
2021/12/23 01:25:54;;;;;;;23.23;11.63;;;;;;;0.30;76.18;101569.75;5095444;28;20036;-64
2021/12/23 01:28:20;;;;;;;24.10;12.23;;;;;;;0.20;75.75;101556.84;5095441;28;20028;-64
2021/12/23 01:30:46;;;;;;;25.70;12.35;;;;;;;0.13;76.65;101550.50;5095296;28;20024;-64
2021/12/23 01:33:12;;;;;;;21.92;12.75;;;;;;;0.14;76.77;101541.97;5077119;28;20042;-64
2021/12/23 01:35:39;;;;;;;24.42;12.85;;;;;;;0.11;76.71;101541.38;5095274;28;20077;-64
2021/12/23 01:38:05;;;;;;;21.65;12.02;;;;;;;0.00;76.98;101521.75;5077043;28;20024;-63
2021/12/23 01:40:31;;;;;;;25.63;12.68;;;;;;;0.07;76.61;101519.63;5095038;28;20024;-66
2021/12/23 01:42:57;;;;;;;21.73;11.40;;;;;;;0.08;76.33;101493.28;5076156;28;20505;-64
2021/12/23 01:45:25;;;;;;;27.05;13.05;;;;;;;0.15;75.79;101508.03;5076772;28;20115;-63
2021/12/23 01:47:51;;;;;;;24.13;12.82;;;;;;;0.09;76.50;101500.81;5095335;28;20032;-63
2021/12/23 01:50:20;;;;;;;26.38;11.77;;;;;;;0.08;76.63;101494.09;5095319;28;20031;-63
2021/12/23 01:52:45;;;;;;;25.83;12.70;;;;;;;0.04;76.52;101495.22;5095482;28;20032;-64
2021/12/23 01:55:11;;;;;;;26.42;12.68;;;;;;;0.09;76.39;101479.66;5077147;28;20024;-65
2021/12/23 01:57:39;;;;;;;23.10;11.23;;;;;;;-0.04;76.73;101489.81;5094955;28;20052;-64
2021/12/23 02:00:08;;;;;;;24.15;12.32;;;;;;;-0.07;77.44;101513.69;5095084;28;20476;-64
2021/12/23 02:02:34;;;;;;;24.77;12.65;;;;;;;0.07;76.87;101509.44;5094927;28;20032;-64
2021/12/23 02:04:59;;;;;;;23.45;12.63;;;;;;;0.02;76.53;101491.94;5095585;28;20352;-64
2021/12/23 02:07:25;;;;;;;24.90;12.20;;;;;;;0.01;76.35;101494.59;5094943;28;20473;-63
2021/12/23 02:09:50;;;;;;;23.38;12.70;;;;;;;-0.05;76.87;101493.28;5094945;28;20020;-65
2021/12/23 02:12:16;;;;;;;25.10;12.57;;;;;;;-0.02;76.41;101505.78;5094824;28;20051;-64
2021/12/23 02:14:42;;;;;;;25.80;12.85;;;;;;;-0.15;76.79;101492.25;5094797;28;20095;-64
2021/12/23 02:17:08;;;;;;;22.80;12.23;;;;;;;-0.05;76.32;101488.19;5095254;28;20031;-64
2021/12/23 02:19:33;;;;;;;26.98;12.18;;;;;;;-0.10;76.96;101485.13;5094734;28;20031;-64
2021/12/23 02:21:59;;;;;;;26.17;12.80;;;;;;;-0.20;76.84;101490.00;5094765;28;20021;-63
2021/12/23 02:24:25;;;;;;;25.65;13.13;;;;;;;-0.14;77.50;101471.03;5094894;28;20156;-63
2021/12/23 02:26:50;;;;;;;27.60;12.32;;;;;;;-0.34;77.44;101469.78;5094548;28;20406;-63
2021/12/23 02:29:16;;;;;;;25.90;12.85;;;;;;;-0.26;77.60;101475.16;5094560;28;20024;-64
2021/12/23 02:31:46;;;;;;;30.02;13.77;;;;;;;-0.21;77.34;101469.78;5094495;28;20061;-61
2021/12/23 02:34:12;;;;;;;29.38;13.13;;;;;;;-0.19;77.31;101465.41;5094745;28;20178;-62
2021/12/23 02:36:37;;;;;;;27.85;12.57;;;;;;;-0.26;77.69;101464.97;5094390;28;20066;-62
2021/12/23 02:39:02;;;;;;;26.20;13.65;;;;;;;-0.38;77.76;101464.06;5094384;28;20378;-62
2021/12/23 02:41:28;;;;;;;26.45;12.95;;;;;;;-0.31;77.86;101455.13;5093985;28;20020;-61
2021/12/23 02:43:53;;;;;;;25.58;12.20;;;;;;;-0.38;78.10;101445.47;5076006;28;20092;-63
2021/12/23 02:46:19;;;;;;;27.30;12.95;;;;;;;-0.30;77.75;101435.63;5094225;28;20027;-65
2021/12/23 02:48:45;;;;;;;25.80;13.25;;;;;;;-0.32;77.55;101443.34;5094218;28;20027;-66
2021/12/23 02:51:12;;;;;;;27.60;13.80;;;;;;;-0.28;77.80;101434.63;5094426;28;20047;-63
2021/12/23 02:53:39;;;;;;;23.60;13.27;;;;;;;-0.27;77.78;101435.44;5075922;28;20363;-62
2021/12/23 02:56:07;;;;;;;31.00;14.07;;;;;;;-0.35;78.01;101420.69;5094098;28;20470;-62
2021/12/23 02:58:33;;;;;;;24.23;12.23;;;;;;;-0.31;77.70;101429.75;5075844;28;20059;-63
2021/12/23 03:01:00;;;;;;;25.38;13.07;;;;;;;-0.19;77.28;101424.78;5094202;28;20016;-62
2021/12/23 03:03:26;;;;;;;20.08;11.40;;;;;;;-0.42;77.59;101432.16;5092619;28;20050;-63
2021/12/23 03:05:54;;;;;;;27.20;13.43;;;;;;;-0.33;77.92;101429.03;5075781;28;20024;-65
2021/12/23 03:08:34;;;;;;;25.25;13.07;;;;;;;-0.32;77.34;101430.63;5094092;28;20020;-64
2021/12/23 03:11:00;;;;;;;27.73;13.85;;;;;;;-0.34;77.93;101418.97;5075337;28;20023;-68
2021/12/23 03:13:25;;;;;;;28.15;14.05;;;;;;;-0.29;78.14;101424.53;5093781;28;20429;-65
2021/12/23 03:15:51;;;;;;;28.17;14.27;;;;;;;-0.31;77.79;101409.41;5093727;28;20031;-62
2021/12/23 03:18:17;;;;;;;29.40;14.23;;;;;;;-0.26;77.59;101415.03;5075656;28;20028;-62
2021/12/23 03:20:42;;;;;;;27.10;14.40;;;;;;;-0.17;77.20;101418.69;5075403;28;20028;-62
2021/12/23 03:23:07;;;;;;;29.73;13.68;;;;;;;-0.19;77.17;101394.28;5075586;28;20035;-63
2021/12/23 03:25:32;;;;;;;29.65;14.07;;;;;;;-0.25;77.88;101388.69;5093672;28;20027;-64
2021/12/23 03:27:58;;;;;;;27.92;13.55;;;;;;;-0.38;78.09;101385.31;5093832;28;20103;-62
2021/12/23 03:30:23;;;;;;;27.67;13.82;;;;;;;-0.34;78.37;101369.00;5093614;28;20030;-66
2021/12/23 03:32:49;;;;;;;28.75;14.27;;;;;;;-0.36;77.96;101375.09;5093626;28;20117;-63
2021/12/23 03:35:16;;;;;;;28.02;14.40;;;;;;;-0.31;78.25;101348.47;5093650;28;20477;-64
2021/12/23 03:37:41;;;;;;;28.40;13.88;;;;;;;-0.48;78.64;101352.13;5093618;28;20024;-64
2021/12/23 03:40:07;;;;;;;27.17;14.20;;;;;;;-0.50;79.02;101341.25;5058856;28;20024;-63
2021/12/23 03:42:33;;;;;;;31.48;13.85;;;;;;;-0.41;78.49;101339.00;5093149;28;20044;-64
2021/12/23 03:44:58;;;;;;;30.98;14.68;;;;;;;-0.39;78.33;101355.78;5093538;28;20020;-64
2021/12/23 03:47:23;;;;;;;31.75;14.80;;;;;;;-0.35;78.79;101351.28;5075372;28;20020;-64
2021/12/23 03:49:49;;;;;;;28.27;12.18;;;;;;;-0.37;78.42;101348.06;5093361;28;20020;-64
2021/12/23 03:52:14;;;;;;;31.30;15.63;;;;;;;-0.42;78.77;101345.00;5093367;28;20016;-63
2021/12/23 03:54:40;;;;;;;28.58;14.27;;;;;;;-0.45;79.23;101353.66;5093399;28;20059;-63
2021/12/23 03:57:06;;;;;;;27.85;14.95;;;;;;;-0.35;78.50;101361.47;5093320;28;20024;-64
2021/12/23 03:59:31;;;;;;;29.10;14.77;;;;;;;-0.23;78.60;101365.75;5093864;28;20070;-64
2021/12/23 04:01:57;;;;;;;29.15;14.30;;;;;;;-0.31;78.83;101368.78;5093236;28;20458;-64
2021/12/23 04:04:22;;;;;;;29.30;15.30;;;;;;;-0.28;78.49;101383.81;5093329;28;20048;-66
2021/12/23 04:06:47;;;;;;;28.75;14.85;;;;;;;-0.21;78.69;101388.50;5093227;28;20073;-65
2021/12/23 04:09:13;;;;;;;29.35;14.70;;;;;;;-0.25;78.74;101381.06;5093257;28;20027;-65
2021/12/23 04:11:38;;;;;;;32.45;14.98;;;;;;;-0.22;78.75;101374.16;5075131;28;20035;-64
2021/12/23 04:14:03;;;;;;;28.20;15.25;;;;;;;-0.32;78.72;101384.91;5075117;28;20485;-64
2021/12/23 04:16:29;;;;;;;28.33;14.82;;;;;;;-0.38;79.52;101389.59;5093188;28;20032;-64
2021/12/23 04:18:55;;;;;;;27.60;14.00;;;;;;;-0.24;79.39;101384.41;5075049;28;20536;-64
2021/12/23 04:21:20;;;;;;;29.00;15.18;;;;;;;-0.40;79.48;101371.94;5095117;28;20055;-64
2021/12/23 04:23:45;;;;;;;29.15;15.15;;;;;;;-0.30;79.42;101377.22;5078775;28;20023;-64
2021/12/23 04:26:11;;;;;;;32.30;15.50;;;;;;;-0.22;79.56;101361.47;5096866;28;20028;-65
2021/12/23 04:28:45;;;;;;;29.83;14.52;;;;;;;-0.42;80.10;101357.72;5096841;28;20115;-65
2021/12/23 04:31:13;;;;;;;31.95;15.02;;;;;;;-0.35;79.91;101341.13;5096882;28;20073;-64
2021/12/23 04:33:38;;;;;;;29.55;14.70;;;;;;;-0.45;80.72;101346.03;5096778;28;20023;-65
2021/12/23 04:36:04;;;;;;;32.92;15.52;;;;;;;-0.24;79.91;101354.75;5096758;28;20433;-64
2021/12/23 04:38:29;;;;;;;29.17;15.63;;;;;;;-0.38;80.16;101339.63;5096714;28;20032;-63
2021/12/23 04:40:55;;;;;;;36.88;16.60;;;;;;;-0.38;80.15;101347.22;5096886;28;20060;-65
2021/12/23 04:43:20;;;;;;;31.58;16.40;;;;;;;-0.37;80.33;101358.22;5078161;28;20100;-64
2021/12/23 04:45:46;;;;;;;32.28;15.85;;;;;;;-0.26;80.75;101361.69;5096574;28;20024;-63
2021/12/23 04:48:11;;;;;;;32.35;16.83;;;;;;;-0.32;80.33;101340.94;5078333;28;20078;-63
2021/12/23 04:50:36;;;;;;;34.72;16.25;;;;;;;-0.47;80.96;101323.25;5096498;28;20020;-65
2021/12/23 04:53:02;;;;;;;37.55;18.33;;;;;;;-0.40;81.07;101327.94;5096361;28;20547;-64
2021/12/23 04:55:28;;;;;;;34.60;17.17;;;;;;;-0.36;81.48;101342.06;5096346;28;20509;-65
2021/12/23 04:57:54;;;;;;;38.78;18.02;;;;;;;-0.38;81.15;101341.34;5096632;28;20347;-63
2021/12/23 05:00:21;;;;;;;36.63;16.92;;;;;;;-0.45;81.72;101338.41;5096266;28;20036;-64
2021/12/23 05:02:47;;;;;;;35.88;17.60;;;;;;;-0.60;81.93;101335.16;5096095;28;20089;-64
2021/12/23 05:05:14;;;;;;;38.75;18.65;;;;;;;-0.64;82.35;101320.22;5096156;28;20028;-63
2021/12/23 05:07:40;;;;;;;39.67;19.42;;;;;;;-0.77;83.31;101322.75;5096068;28;20023;-64
2021/12/23 05:10:07;;;;;;;43.20;20.70;;;;;;;-0.59;83.18;101321.53;5077976;28;20020;-65
2021/12/23 05:12:36;;;;;;;52.38;21.70;;;;;;;-0.47;82.52;101319.91;5077897;28;20038;-65
2021/12/23 05:15:02;;;;;;;48.88;21.20;;;;;;;-0.48;83.12;101320.84;5077838;28;20016;-65
2021/12/23 05:17:27;;;;;;;58.22;23.13;;;;;;;-0.56;83.46;101298.50;5077868;28;20149;-64
2021/12/23 05:19:53;;;;;;;62.22;23.88;;;;;;;-0.56;83.53;101288.34;5095896;28;20542;-65
2021/12/23 05:22:18;;;;;;;61.63;24.60;;;;;;;-0.49;83.44;101292.09;5095707;28;20505;-64
2021/12/23 05:24:43;;;;;;;57.97;24.27;;;;;;;-0.57;83.20;101291.78;5095900;28;20107;-65
2021/12/23 05:27:09;;;;;;;65.38;25.83;;;;;;;-0.64;84.27;101282.13;5095752;28;20115;-65
2021/12/23 05:29:34;;;;;;;56.30;23.45;;;;;;;-0.46;83.58;101261.44;5095744;28;20020;-65
2021/12/23 05:31:59;;;;;;;60.22;24.20;;;;;;;-0.56;83.92;101259.59;5095320;28;20452;-65
2021/12/23 05:34:25;;;;;;;65.03;24.50;;;;;;;-0.43;83.68;101268.03;5077540;28;20036;-66
2021/12/23 05:36:50;;;;;;;61.20;25.35;;;;;;;-0.37;83.22;101276.97;5095665;28;20063;-65
2021/12/23 05:39:15;;;;;;;65.32;25.30;;;;;;;-0.41;83.35;101270.44;5095577;28;20024;-64
2021/12/23 05:41:41;;;;;;;69.50;26.85;;;;;;;-0.44;84.24;101263.03;5095357;28;20432;-64
2021/12/23 05:44:06;;;;;;;69.57;26.27;;;;;;;-0.54;84.83;101258.59;5095692;28;20043;-64
2021/12/23 05:46:32;;;;;;;73.50;26.65;;;;;;;-0.47;84.30;101254.69;5095355;28;20028;-63
2021/12/23 05:48:57;;;;;;;68.45;26.08;;;;;;;-0.41;84.03;101257.75;5095553;28;20020;-65
2021/12/23 05:51:22;;;;;;;64.70;26.38;;;;;;;-0.47;84.67;101266.59;5095309;28;20016;-65
2021/12/23 05:53:48;;;;;;;72.20;26.13;;;;;;;-0.41;84.16;101261.09;5095202;28;20028;-64
2021/12/23 05:56:13;;;;;;;74.75;27.60;;;;;;;-0.52;84.47;101248.31;5095197;28;20028;-64
2021/12/23 05:58:39;;;;;;;65.90;25.83;;;;;;;-0.43;84.24;101244.34;5076971;28;20111;-64
2021/12/23 06:01:05;;;;;;;73.20;27.30;;;;;;;-0.27;83.78;101248.28;5094999;28;20016;-64
2021/12/23 06:03:30;;;;;;;73.60;27.67;;;;;;;-0.55;84.70;101246.78;5095028;28;20078;-64
2021/12/23 06:05:56;;;;;;;71.47;26.92;;;;;;;-0.76;85.10;101246.50;5076900;28;20474;-63
2021/12/23 06:08:21;;;;;;;69.35;25.60;;;;;;;-0.68;85.63;101258.69;5094987;28;20363;-65
2021/12/23 06:10:46;;;;;;;66.95;25.48;;;;;;;-0.43;84.39;101252.78;5076780;28;20462;-65
2021/12/23 06:13:11;;;;;;;76.72;26.67;;;;;;;-0.35;84.29;101262.41;5094864;28;20035;-64
2021/12/23 06:15:37;;;;;;;73.38;25.58;;;;;;;-0.34;84.53;101266.59;5094888;28;20028;-63
2021/12/23 06:18:03;;;;;;;73.47;27.15;;;;;;;-0.28;84.19;101269.50;5094839;28;20074;-64
2021/12/23 06:20:29;;;;;;;66.50;26.33;;;;;;;-0.24;84.19;101259.94;5094643;28;20024;-63
2021/12/23 06:22:54;;;;;;;70.80;25.52;;;;;;;-0.37;84.24;101254.91;5094605;28;20547;-64
2021/12/23 06:25:19;;;;;;;73.57;27.77;;;;;;;-0.31;84.22;101251.16;5094633;28;20474;-64
2021/12/23 06:27:45;;;;;;;72.70;26.27;;;;;;;-0.35;85.38;101245.44;5076463;28;20039;-64
2021/12/23 06:30:19;;;;;;;69.45;25.95;;;;;;;-0.47;84.70;101247.09;5094859;28;20359;-63
2021/12/23 06:32:46;;;;;;;72.03;26.98;;;;;;;-0.42;86.73;101248.53;5076422;28;20020;-63
2021/12/23 06:35:12;;;;;;;73.22;26.67;;;;;;;-0.32;85.87;101241.88;5094013;28;20429;-64
2021/12/23 06:37:38;;;;;;;73.35;25.85;;;;;;;-0.38;85.48;101239.75;5092663;28;20134;-64
2021/12/23 06:40:04;;;;;;;68.57;25.90;;;;;;;-0.31;85.14;101246.06;5076024;28;20390;-64
2021/12/23 06:42:30;;;;;;;66.55;26.05;;;;;;;-0.47;86.27;101244.53;5075932;28;20039;-64
2021/12/23 06:44:55;;;;;;;72.18;27.63;;;;;;;-0.29;85.40;101249.28;5092947;28;20024;-64
2021/12/23 06:47:21;;;;;;;66.85;25.55;;;;;;;-0.25;85.29;101240.56;5075984;28;20027;-64
2021/12/23 06:49:47;;;;;;;69.90;25.33;;;;;;;-0.25;85.58;101238.03;5075955;28;20024;-65
2021/12/23 06:52:13;;;;;;;71.85;26.10;;;;;;;-0.27;85.60;101230.50;5075936;28;20024;-64
2021/12/23 06:54:42;;;;;;;70.10;26.13;;;;;;;-0.26;85.71;101234.69;5094064;28;20552;-64
2021/12/23 06:57:08;;;;;;;68.18;26.20;;;;;;;-0.23;85.08;101241.28;5094001;28;20020;-64
2021/12/23 06:59:33;;;;;;;66.25;25.45;;;;;;;-0.16;86.24;101242.47;5075772;28;20062;-63
2021/12/23 07:01:58;;;;;;;65.88;25.15;;;;;;;-0.11;85.58;101245.50;5093760;28;20032;-63
2021/12/23 07:04:28;;;;;;;62.47;25.65;;;;;;;-0.12;85.84;101251.47;5075593;28;20394;-63
2021/12/23 07:07:08;;;;;;;59.88;24.58;;;;;;;-0.19;85.87;101245.22;5093764;28;20020;-63
2021/12/23 07:09:34;;;;;;;63.47;25.27;;;;;;;-0.15;86.35;101246.63;5094054;28;20019;-63
2021/12/23 07:11:59;;;;;;;60.03;24.88;;;;;;;-0.15;85.80;101246.63;5091951;28;20028;-64
2021/12/23 07:14:24;;;;;;;68.07;25.45;;;;;;;-0.15;85.77;101240.72;5091512;28;20476;-63
2021/12/23 07:16:50;;;;;;;65.55;24.50;;;;;;;-0.36;85.78;101230.31;5092116;28;20027;-65
2021/12/23 07:19:15;;;;;;;57.97;24.23;;;;;;;-0.50;87.17;101218.56;5073563;28;20053;-63
2021/12/23 07:21:40;;;;;;;71.43;25.05;;;;;;;-0.42;87.08;101215.50;5092604;28;20032;-62
2021/12/23 07:24:06;;;;;;;82.38;26.20;;;;;;;-0.43;87.26;101214.69;5093465;28;20024;-64
2021/12/23 07:26:32;;;;;;;67.45;24.92;;;;;;;-0.41;86.78;101217.94;5093523;28;20044;-63
2021/12/23 07:28:58;;;;;;;64.15;24.23;;;;;;;-0.42;87.47;101215.50;5093582;28;20024;-63
2021/12/23 07:31:23;;;;;;;62.38;24.52;;;;;;;-0.38;87.60;101196.59;5093374;28;20215;-63
2021/12/23 07:33:48;;;;;;;64.88;25.15;;;;;;;-0.49;87.70;101182.94;5093424;28;20377;-62
2021/12/23 07:36:16;;;;;;;65.85;24.08;;;;;;;-0.54;87.89;101182.41;5093416;28;20027;-64
2021/12/23 07:38:41;;;;;;;65.53;24.73;;;;;;;-0.53;87.68;101183.22;5092440;28;20023;-64
2021/12/23 07:41:07;;;;;;;65.80;25.25;;;;;;;-0.61;89.10;101185.47;5093158;28;20404;-63
2021/12/23 07:46:02;;;;;;;63.70;24.55;;;;;;;-0.56;88.73;101198.66;5093617;28;20034;-64
2021/12/23 07:48:27;;;;;;;64.30;24.05;;;;;;;-0.53;88.48;101206.06;5075701;28;20024;-63
2021/12/23 07:50:54;;;;;;;58.70;23.77;;;;;;;-0.57;88.80;101207.22;5093418;28;20027;-64
2021/12/23 07:53:20;;;;;;;66.28;24.02;;;;;;;-0.43;89.04;101207.09;5075316;28;20027;-63
2021/12/23 07:55:45;;;;;;;62.10;24.58;;;;;;;-0.35;88.05;101211.63;5094677;28;20389;-64
2021/12/23 07:58:11;;;;;;;58.72;23.65;;;;;;;-0.32;88.36;101204.59;5097776;28;20020;-65
2021/12/23 08:00:36;;;;;;;62.33;24.20;;;;;;;-0.24;87.85;101183.75;5097158;28;20024;-64
2021/12/23 08:03:02;;;;;;;58.40;22.35;;;;;;;-0.33;87.98;101186.94;5097252;28;20020;-65
2021/12/23 08:05:28;;;;;;;59.13;22.58;;;;;;;-0.42;88.06;101190.13;5096855;28;20023;-65
2021/12/23 08:07:56;;;;;;;54.72;22.05;;;;;;;-0.68;88.95;101177.47;5097124;28;20386;-65
2021/12/23 08:10:22;;;;;;;57.95;22.50;;;;;;;-0.75;89.83;101168.63;5096037;28;20056;-65
2021/12/23 08:12:47;;;;;;;58.20;23.48;;;;;;;-0.66;90.27;101175.66;5096195;28;20020;-68
2021/12/23 08:15:13;;;;;;;58.78;23.95;;;;;;;-0.35;89.33;101178.59;5095882;28;20031;-64
2021/12/23 08:17:38;;;;;;;59.38;23.92;;;;;;;-0.44;88.58;101180.06;5079366;28;20529;-65
2021/12/23 08:20:05;;;;;;;55.78;23.10;;;;;;;-0.57;89.41;101175.00;5100215;28;20024;-66
2021/12/23 08:22:30;;;;;;;55.70;22.50;;;;;;;-0.55;89.01;101163.00;5081605;28;20016;-67
2021/12/23 08:24:56;;;;;;;56.92;22.95;;;;;;;-0.86;89.46;101155.84;5101187;28;20090;-67
2021/12/23 08:27:25;;;;;;;54.00;21.73;;;;;;;-0.73;89.58;101149.03;5083867;28;20540;-70
2021/12/23 08:29:50;;;;;;;56.03;23.17;;;;;;;-0.64;88.86;101129.84;5067712;28;20111;-69
2021/12/23 08:32:16;;;;;;;55.90;23.42;;;;;;;-0.68;88.85;101144.47;5082855;28;20055;-64
2021/12/23 08:34:41;;;;;;;57.60;24.05;;;;;;;-0.43;89.04;101140.22;5099548;28;20107;-66
2021/12/23 08:37:11;;;;;;;55.75;22.83;;;;;;;-0.41;88.33;101123.16;5097540;28;20482;-65
2021/12/23 08:39:36;;;;;;;56.55;23.13;;;;;;;-0.29;87.66;101110.44;5096737;28;20558;-64
2021/12/23 08:42:02;;;;;;;56.38;24.15;;;;;;;-0.30;87.76;101106.25;5095926;28;20119;-65
2021/12/23 08:44:27;;;;;;;53.58;22.38;;;;;;;-0.33;88.37;101120.91;5078107;28;20035;-65
2021/12/23 08:46:53;;;;;;;54.25;23.15;;;;;;;-0.26;88.11;101119.53;5095823;28;20474;-65
2021/12/23 08:49:18;;;;;;;60.25;23.50;;;;;;;-0.25;88.13;101109.28;5096135;28;20020;-64
2021/12/23 08:51:43;;;;;;;58.50;22.95;;;;;;;-0.25;87.26;101132.16;5097278;28;20024;-64
2021/12/23 08:54:10;;;;;;;56.50;22.77;;;;;;;-0.01;88.00;101141.47;5095830;28;20020;-65
2021/12/23 08:56:35;;;;;;;57.80;22.95;;;;;;;-0.02;86.98;101134.78;5094689;28;20031;-66
2021/12/23 08:59:01;;;;;;;54.13;23.42;;;;;;;-0.06;86.40;101123.22;5076298;28;20034;-65
2021/12/23 09:01:26;;;;;;;55.53;22.98;;;;;;;-0.10;87.08;101119.28;5076118;28;20028;-64
2021/12/23 09:03:51;;;;;;;53.30;22.55;;;;;;;-0.11;87.00;101110.84;5094498;28;20055;-66
2021/12/23 09:06:17;;;;;;;56.25;22.85;;;;;;;-0.21;87.36;101106.53;5075659;28;20019;-65
2021/12/23 09:08:42;;;;;;;52.28;22.15;;;;;;;-0.35;87.54;101097.34;5093538;28;20489;-65
2021/12/23 09:11:08;;;;;;;53.70;23.10;;;;;;;-0.36;87.52;101083.03;5077803;28;20428;-66
2021/12/23 09:13:33;;;;;;;58.17;22.58;;;;;;;-0.32;87.64;101072.53;5078030;28;20043;-64
2021/12/23 09:15:59;;;;;;;55.50;23.10;;;;;;;-0.13;87.33;101072.03;5096154;28;20027;-65
2021/12/23 09:18:26;;;;;;;60.60;23.60;;;;;;;-0.10;87.19;101071.00;5096004;28;20078;-63
2021/12/23 09:20:53;;;;;;;58.75;22.92;;;;;;;-0.08;87.50;101057.28;5095966;28;20027;-64
2021/12/23 09:23:19;;;;;;;60.50;23.88;;;;;;;-0.07;86.75;101063.97;5095900;28;20466;-64
2021/12/23 09:25:46;;;;;;;56.22;23.10;;;;;;;-0.24;87.57;101056.75;5077723;28;20021;-64
2021/12/23 09:28:25;;;;;;;53.03;23.30;;;;;;;-0.33;87.79;101039.63;5095863;28;20485;-64
2021/12/23 09:33:36;;;;;;;55.78;22.92;;;;;;;0.05;86.86;101026.69;5096402;28;20054;-63
2021/12/23 09:36:01;;;;;;;55.00;21.58;;;;;;;0.02;86.01;101033.75;5077773;28;20028;-65
2021/12/23 09:38:27;;;;;;;55.40;23.00;;;;;;;-0.10;86.76;101036.25;5095608;28;20032;-64
2021/12/23 09:41:23;;;;;;;54.88;23.02;;;;;;;-0.11;87.15;101042.25;5077306;28;20424;-65
2021/12/23 09:43:49;;;;;;;54.38;22.40;;;;;;;0.11;87.44;101035.59;5062209;28;20040;-65
2021/12/23 09:46:17;;;;;;;58.08;22.65;;;;;;;0.08;86.28;101036.63;5056776;28;20017;-65
2021/12/23 09:48:45;;;;;;;49.25;19.88;;;;;;;0.20;86.56;101034.91;5074525;28;20055;-66
2021/12/23 09:51:13;;;;;;;54.25;22.15;;;;;;;0.18;87.01;101036.78;5075565;28;20529;-64
2021/12/23 09:53:42;;;;;;;58.90;22.27;;;;;;;0.19;86.77;101033.31;5075030;28;20471;-65
2021/12/23 09:56:07;;;;;;;52.75;21.98;;;;;;;0.30;85.71;101035.88;5075313;28;20442;-65
2021/12/23 09:58:34;;;;;;;56.05;22.10;;;;;;;0.17;86.27;101030.06;5074850;28;20024;-65
2021/12/23 10:01:00;;;;;;;57.22;23.10;;;;;;;0.10;86.70;101024.63;5073401;28;20064;-64
2021/12/23 10:03:27;;;;;;;55.47;22.80;;;;;;;0.08;86.32;101000.25;5075295;28;20032;-64
2021/12/23 10:05:55;;;;;;;58.65;22.77;;;;;;;0.14;86.92;101017.56;5056632;28;20078;-64
2021/12/23 10:08:20;;;;;;;52.67;21.45;;;;;;;0.14;86.55;101012.50;5074677;28;20024;-66
2021/12/23 10:11:27;;;;;;;50.25;21.67;;;;;;;0.19;85.76;101015.50;5056641;28;20104;-64
2021/12/23 10:27:01;;;;;;;57.33;22.30;;;;;;;0.27;86.35;101000.50;5070315;28;20098;-64
2021/12/23 10:29:18;;;;;;;48.92;19.75;;;;;;;0.66;85.55;100988.22;5074550;28;20132;-65
2021/12/23 10:30:38;;;;;;;51.75;20.63;;;;;;;0.54;85.71;100979.00;5074153;28;20032;-64
2021/12/23 10:33:32;;;;;;;55.90;22.58;;;;;;;0.64;85.65;100978.19;5074159;28;20108;-63
2021/12/23 10:38:43;;;;;;;54.42;21.17;;;;;;;0.66;85.70;100965.34;5074127;28;20032;-63
2021/12/23 10:41:19;;;;;;;47.92;20.30;;;;;;;0.67;86.03;100961.88;5073807;28;20028;-64
2021/12/23 10:43:46;;;;;;;52.75;20.58;;;;;;;0.74;85.93;100960.47;5093088;28;20040;-65
2021/12/23 10:46:20;;;;;;;54.92;21.50;;;;;;;0.78;85.28;100961.88;5093701;28;20106;-65
2021/12/23 10:49:11;;;;;;;55.25;21.13;;;;;;;0.71;85.58;100965.81;5094475;28;20031;-64
2021/12/23 10:51:57;;;;;;;52.47;20.95;;;;;;;1.01;84.88;100954.19;5094663;28;20103;-65
2021/12/23 11:00:32;;;;;;;50.50;21.25;;;;;;;1.33;85.39;100949.09;5094829;28;20118;-65
2021/12/23 11:05:52;;;;;;;45.20;19.70;;;;;;;1.17;84.82;100934.22;5094711;28;20031;-63
2021/12/23 11:41:32;;;;;;;48.20;20.90;;;;;;;2.38;81.55;100886.00;5094901;28;20090;-64
2021/12/23 11:44:00;;;;;;;46.85;18.88;;;;;;;2.47;82.26;100875.06;5075605;28;20036;-66
2021/12/23 11:46:50;;;;;;;49.60;20.92;;;;;;;2.27;82.50;100868.28;5075432;28;20062;-65
2021/12/23 11:49:17;;;;;;;48.45;19.75;;;;;;;2.25;82.82;100859.97;5092626;28;20090;-66
2021/12/23 11:54:19;;;;;;;44.03;19.52;;;;;;;2.36;82.13;100846.28;5094028;28;20122;-63
2021/12/23 11:56:51;;;;;;;49.10;20.52;;;;;;;2.20;83.03;100847.59;5093895;28;20028;-64
2021/12/23 11:59:18;;;;;;;47.53;21.42;;;;;;;2.25;83.00;100831.91;5093819;28;20024;-66
2021/12/23 12:01:52;;;;;;;49.53;21.80;;;;;;;2.24;82.35;100828.56;5093183;28;20024;-64
2021/12/23 12:04:35;;;;;;;49.35;20.13;;;;;;;2.26;83.45;100829.22;5092691;28;20040;-63
2021/12/23 12:07:12;;;;;;;43.15;18.80;;;;;;;2.43;81.85;100821.88;5092464;28;20069;-63
2021/12/23 12:09:54;;;;;;;48.30;20.20;;;;;;;2.51;81.85;100814.34;5078318;28;20031;-68
2021/12/23 12:12:19;;;;;;;44.92;19.42;;;;;;;2.75;81.36;100802.94;5073949;28;20374;-66
2021/12/23 12:14:46;;;;;;;48.90;20.30;;;;;;;2.89;80.42;100794.88;5091630;28;20110;-64
2021/12/23 12:17:24;;;;;;;47.65;19.63;;;;;;;2.91;80.10;100793.00;5091134;28;20078;-65
2021/12/23 12:19:57;;;;;;;53.78;20.77;;;;;;;2.93;80.84;100785.97;5091546;28;20032;-65